sensor_id;sensor_type;location;lat;lon;timestamp;P1;durP1;ratioP1;P2;durP2;ratioP2
59685;SDS011;45554;51.096;16.976;2024-02-04T00:01:00;6.50;;;2.20;;
59685;SDS011;45554;51.096;16.976;2024-02-04T00:04:01;5.60;;;1.90;;
59685;SDS011;45554;51.096;16.976;2024-02-04T00:06:31;3.60;;;1.70;;
59685;SDS011;45554;51.096;16.976;2024-02-04T00:09:00;3.00;;;1.50;;
59685;SDS011;45554;51.096;16.976;2024-02-04T00:11:33;2.10;;;0.90;;
59685;SDS011;45554;51.096;16.976;2024-02-04T00:14:01;2.40;;;1.00;;
59685;SDS011;45554;51.096;16.976;2024-02-04T00:16:29;3.60;;;0.80;;
59685;SDS011;45554;51.096;16.976;2024-02-04T00:18:57;2.20;;;0.60;;
59685;SDS011;45554;51.096;16.976;2024-02-04T00:21:36;1.20;;;0.70;;
59685;SDS011;45554;51.096;16.976;2024-02-04T00:24:05;1.20;;;0.70;;
59685;SDS011;45554;51.096;16.976;2024-02-04T00:26:50;2.10;;;0.70;;
59685;SDS011;45554;51.096;16.976;2024-02-04T00:29:18;2.90;;;0.80;;
59685;SDS011;45554;51.096;16.976;2024-02-04T00:31:45;5.10;;;0.90;;
59685;SDS011;45554;51.096;16.976;2024-02-04T00:34:12;2.70;;;0.80;;
59685;SDS011;45554;51.096;16.976;2024-02-04T00:37:01;3.30;;;1.00;;
59685;SDS011;45554;51.096;16.976;2024-02-04T00:39:28;3.40;;;0.80;;
59685;SDS011;45554;51.096;16.976;2024-02-04T00:41:58;3.40;;;0.90;;
59685;SDS011;45554;51.096;16.976;2024-02-04T00:44:25;3.10;;;0.80;;
59685;SDS011;45554;51.096;16.976;2024-02-04T00:46:52;2.30;;;0.80;;
59685;SDS011;45554;51.096;16.976;2024-02-04T00:49:19;1.90;;;0.80;;
59685;SDS011;45554;51.096;16.976;2024-02-04T00:51:46;1.90;;;0.90;;
59685;SDS011;45554;51.096;16.976;2024-02-04T00:54:37;3.60;;;1.00;;
59685;SDS011;45554;51.096;16.976;2024-02-04T00:57:04;3.10;;;0.90;;
59685;SDS011;45554;51.096;16.976;2024-02-04T00:59:31;3.50;;;1.00;;
59685;SDS011;45554;51.096;16.976;2024-02-04T01:01:57;1.70;;;1.00;;
59685;SDS011;45554;51.096;16.976;2024-02-04T01:04:28;3.40;;;1.20;;
59685;SDS011;45554;51.096;16.976;2024-02-04T01:06:55;2.40;;;0.90;;
59685;SDS011;45554;51.096;16.976;2024-02-04T01:09:28;3.00;;;1.10;;
59685;SDS011;45554;51.096;16.976;2024-02-04T01:11:56;2.50;;;1.00;;
59685;SDS011;45554;51.096;16.976;2024-02-04T01:14:23;2.50;;;1.20;;
59685;SDS011;45554;51.096;16.976;2024-02-04T01:16:51;3.90;;;1.50;;
59685;SDS011;45554;51.096;16.976;2024-02-04T01:19:21;3.30;;;1.20;;
59685;SDS011;45554;51.096;16.976;2024-02-04T01:21:53;3.40;;;1.30;;
59685;SDS011;45554;51.096;16.976;2024-02-04T01:24:22;4.90;;;1.50;;
59685;SDS011;45554;51.096;16.976;2024-02-04T01:31:31;2.10;;;1.00;;
59685;SDS011;45554;51.096;16.976;2024-02-04T01:33:59;3.20;;;1.40;;
59685;SDS011;45554;51.096;16.976;2024-02-04T01:36:30;3.40;;;1.40;;
59685;SDS011;45554;51.096;16.976;2024-02-04T01:39:07;3.00;;;1.50;;
59685;SDS011;45554;51.096;16.976;2024-02-04T01:46:22;4.40;;;1.50;;
59685;SDS011;45554;51.096;16.976;2024-02-04T01:48:51;4.60;;;1.50;;
59685;SDS011;45554;51.096;16.976;2024-02-04T01:51:30;3.40;;;1.60;;
59685;SDS011;45554;51.096;16.976;2024-02-04T01:53:58;2.70;;;1.10;;
59685;SDS011;45554;51.096;16.976;2024-02-04T01:56:26;3.30;;;1.10;;
59685;SDS011;45554;51.096;16.976;2024-02-04T01:58:56;3.60;;;1.30;;
59685;SDS011;45554;51.096;16.976;2024-02-04T02:01:26;2.50;;;1.30;;
59685;SDS011;45554;51.096;16.976;2024-02-04T02:03:57;2.10;;;1.20;;
59685;SDS011;45554;51.096;16.976;2024-02-04T02:12:01;3.30;;;1.80;;
59685;SDS011;45554;51.096;16.976;2024-02-04T02:14:16;2.60;;;1.70;;
59685;SDS011;45554;51.096;16.976;2024-02-04T02:16:46;4.10;;;2.10;;
59685;SDS011;45554;51.096;16.976;2024-02-04T02:19:18;4.40;;;1.70;;
59685;SDS011;45554;51.096;16.976;2024-02-04T02:22:25;3.20;;;1.70;;
59685;SDS011;45554;51.096;16.976;2024-02-04T02:24:56;3.60;;;1.70;;
59685;SDS011;45554;51.096;16.976;2024-02-04T02:27:25;4.10;;;1.80;;
59685;SDS011;45554;51.096;16.976;2024-02-04T02:29:52;2.70;;;1.50;;
59685;SDS011;45554;51.096;16.976;2024-02-04T02:32:19;2.40;;;1.50;;
59685;SDS011;45554;51.096;16.976;2024-02-04T02:34:47;2.60;;;1.70;;
59685;SDS011;45554;51.096;16.976;2024-02-04T02:37:20;4.10;;;1.80;;
59685;SDS011;45554;51.096;16.976;2024-02-04T02:45:06;4.80;;;1.50;;
59685;SDS011;45554;51.096;16.976;2024-02-04T02:47:34;4.50;;;1.20;;
59685;SDS011;45554;51.096;16.976;2024-02-04T02:50:04;4.00;;;1.40;;
59685;SDS011;45554;51.096;16.976;2024-02-04T02:52:37;2.90;;;1.30;;
59685;SDS011;45554;51.096;16.976;2024-02-04T02:55:05;3.30;;;1.20;;
59685;SDS011;45554;51.096;16.976;2024-02-04T02:57:32;4.00;;;1.10;;
59685;SDS011;45554;51.096;16.976;2024-02-04T02:59:58;4.70;;;1.00;;
59685;SDS011;45554;51.096;16.976;2024-02-04T03:02:25;3.40;;;1.40;;
59685;SDS011;45554;51.096;16.976;2024-02-04T03:04:53;3.20;;;1.00;;
59685;SDS011;45554;51.096;16.976;2024-02-04T03:07:23;2.90;;;1.00;;
59685;SDS011;45554;51.096;16.976;2024-02-04T03:09:52;3.70;;;1.10;;
59685;SDS011;45554;51.096;16.976;2024-02-04T03:12:21;2.20;;;0.90;;
59685;SDS011;45554;51.096;16.976;2024-02-04T03:14:51;2.10;;;0.90;;
59685;SDS011;45554;51.096;16.976;2024-02-04T03:17:21;4.10;;;1.10;;
59685;SDS011;45554;51.096;16.976;2024-02-04T03:19:51;2.20;;;0.90;;
59685;SDS011;45554;51.096;16.976;2024-02-04T03:22:21;3.90;;;1.20;;
59685;SDS011;45554;51.096;16.976;2024-02-04T03:25:02;3.40;;;1.10;;
59685;SDS011;45554;51.096;16.976;2024-02-04T03:27:31;3.40;;;1.20;;
59685;SDS011;45554;51.096;16.976;2024-02-04T03:39:09;2.40;;;1.00;;
59685;SDS011;45554;51.096;16.976;2024-02-04T03:46:14;4.30;;;1.10;;
59685;SDS011;45554;51.096;16.976;2024-02-04T03:48:52;4.00;;;1.00;;
59685;SDS011;45554;51.096;16.976;2024-02-04T03:51:19;4.70;;;0.90;;
59685;SDS011;45554;51.096;16.976;2024-02-04T03:53:49;3.90;;;1.00;;
59685;SDS011;45554;51.096;16.976;2024-02-04T03:56:17;2.60;;;1.10;;
59685;SDS011;45554;51.096;16.976;2024-02-04T03:58:57;3.20;;;1.00;;
59685;SDS011;45554;51.096;16.976;2024-02-04T04:01:27;4.00;;;1.00;;
59685;SDS011;45554;51.096;16.976;2024-02-04T04:03:54;3.40;;;1.00;;
59685;SDS011;45554;51.096;16.976;2024-02-04T04:06:25;4.10;;;1.20;;
59685;SDS011;45554;51.096;16.976;2024-02-04T04:09:32;3.40;;;1.00;;
59685;SDS011;45554;51.096;16.976;2024-02-04T04:11:59;3.10;;;1.00;;
59685;SDS011;45554;51.096;16.976;2024-02-04T04:17:44;3.20;;;0.90;;
59685;SDS011;45554;51.096;16.976;2024-02-04T04:20:11;6.40;;;1.30;;
59685;SDS011;45554;51.096;16.976;2024-02-04T04:22:39;3.20;;;0.90;;
59685;SDS011;45554;51.096;16.976;2024-02-04T04:25:16;5.00;;;1.10;;
59685;SDS011;45554;51.096;16.976;2024-02-04T04:27:52;4.90;;;1.10;;
59685;SDS011;45554;51.096;16.976;2024-02-04T04:30:19;5.30;;;1.30;;
59685;SDS011;45554;51.096;16.976;2024-02-04T04:36:05;5.80;;;1.40;;
59685;SDS011;45554;51.096;16.976;2024-02-04T04:38:32;4.80;;;1.40;;
59685;SDS011;45554;51.096;16.976;2024-02-04T04:41:07;4.10;;;1.10;;
59685;SDS011;45554;51.096;16.976;2024-02-04T04:43:38;3.60;;;1.00;;
59685;SDS011;45554;51.096;16.976;2024-02-04T04:46:07;5.10;;;1.40;;
59685;SDS011;45554;51.096;16.976;2024-02-04T04:48:35;6.00;;;1.20;;
59685;SDS011;45554;51.096;16.976;2024-02-04T04:51:17;5.30;;;1.50;;
59685;SDS011;45554;51.096;16.976;2024-02-04T04:53:45;4.40;;;1.00;;
59685;SDS011;45554;51.096;16.976;2024-02-04T04:56:11;4.70;;;1.50;;
59685;SDS011;45554;51.096;16.976;2024-02-04T04:58:38;5.70;;;1.40;;
59685;SDS011;45554;51.096;16.976;2024-02-04T05:01:05;3.70;;;1.10;;
59685;SDS011;45554;51.096;16.976;2024-02-04T05:03:35;5.10;;;1.40;;
59685;SDS011;45554;51.096;16.976;2024-02-04T05:06:02;5.80;;;1.60;;
59685;SDS011;45554;51.096;16.976;2024-02-04T05:08:29;5.40;;;1.20;;
59685;SDS011;45554;51.096;16.976;2024-02-04T05:10:55;4.80;;;1.30;;
59685;SDS011;45554;51.096;16.976;2024-02-04T05:13:22;6.70;;;1.50;;
59685;SDS011;45554;51.096;16.976;2024-02-04T05:15:50;6.30;;;1.20;;
59685;SDS011;45554;51.096;16.976;2024-02-04T05:18:17;6.00;;;1.30;;
59685;SDS011;45554;51.096;16.976;2024-02-04T05:20:43;6.00;;;1.30;;
59685;SDS011;45554;51.096;16.976;2024-02-04T05:23:13;6.50;;;1.00;;
59685;SDS011;45554;51.096;16.976;2024-02-04T05:25:40;4.60;;;1.10;;
59685;SDS011;45554;51.096;16.976;2024-02-04T05:28:10;6.90;;;1.20;;
59685;SDS011;45554;51.096;16.976;2024-02-04T05:30:38;4.70;;;1.20;;
59685;SDS011;45554;51.096;16.976;2024-02-04T05:33:04;4.10;;;1.20;;
59685;SDS011;45554;51.096;16.976;2024-02-04T05:35:33;7.30;;;1.50;;
59685;SDS011;45554;51.096;16.976;2024-02-04T05:38:03;4.50;;;1.40;;
59685;SDS011;45554;51.096;16.976;2024-02-04T05:40:30;5.80;;;1.20;;
59685;SDS011;45554;51.096;16.976;2024-02-04T05:42:57;5.10;;;1.60;;
59685;SDS011;45554;51.096;16.976;2024-02-04T05:45:24;6.10;;;1.40;;
59685;SDS011;45554;51.096;16.976;2024-02-04T05:47:54;4.20;;;1.30;;
59685;SDS011;45554;51.096;16.976;2024-02-04T05:50:21;5.20;;;1.10;;
59685;SDS011;45554;51.096;16.976;2024-02-04T05:52:48;3.60;;;1.00;;
59685;SDS011;45554;51.096;16.976;2024-02-04T05:55:15;3.80;;;1.20;;
59685;SDS011;45554;51.096;16.976;2024-02-04T05:57:43;5.80;;;1.30;;
59685;SDS011;45554;51.096;16.976;2024-02-04T06:00:10;7.80;;;1.50;;
59685;SDS011;45554;51.096;16.976;2024-02-04T06:02:39;7.60;;;1.70;;
59685;SDS011;45554;51.096;16.976;2024-02-04T06:05:06;7.10;;;1.80;;
59685;SDS011;45554;51.096;16.976;2024-02-04T06:07:33;8.00;;;1.40;;
59685;SDS011;45554;51.096;16.976;2024-02-04T06:10:00;5.20;;;1.30;;
59685;SDS011;45554;51.096;16.976;2024-02-04T06:12:30;6.00;;;1.40;;
59685;SDS011;45554;51.096;16.976;2024-02-04T06:14:58;5.80;;;1.60;;
59685;SDS011;45554;51.096;16.976;2024-02-04T06:17:25;5.10;;;1.50;;
59685;SDS011;45554;51.096;16.976;2024-02-04T06:19:52;4.00;;;1.40;;
59685;SDS011;45554;51.096;16.976;2024-02-04T06:22:31;4.30;;;1.30;;
59685;SDS011;45554;51.096;16.976;2024-02-04T06:25:03;7.30;;;2.10;;
59685;SDS011;45554;51.096;16.976;2024-02-04T06:27:31;6.00;;;1.40;;
59685;SDS011;45554;51.096;16.976;2024-02-04T06:29:59;7.60;;;1.60;;
59685;SDS011;45554;51.096;16.976;2024-02-04T06:32:25;8.30;;;1.40;;
59685;SDS011;45554;51.096;16.976;2024-02-04T06:34:53;7.00;;;1.50;;
59685;SDS011;45554;51.096;16.976;2024-02-04T06:37:22;4.30;;;1.40;;
59685;SDS011;45554;51.096;16.976;2024-02-04T06:39:49;7.40;;;1.60;;
59685;SDS011;45554;51.096;16.976;2024-02-04T06:42:16;6.60;;;1.70;;
59685;SDS011;45554;51.096;16.976;2024-02-04T06:44:44;8.40;;;1.90;;
59685;SDS011;45554;51.096;16.976;2024-02-04T06:47:15;6.60;;;1.90;;
59685;SDS011;45554;51.096;16.976;2024-02-04T06:49:43;6.10;;;2.00;;
59685;SDS011;45554;51.096;16.976;2024-02-04T06:52:35;7.00;;;2.30;;
59685;SDS011;45554;51.096;16.976;2024-02-04T06:55:03;9.30;;;2.20;;
59685;SDS011;45554;51.096;16.976;2024-02-04T06:57:30;8.50;;;2.50;;
59685;SDS011;45554;51.096;16.976;2024-02-04T06:59:57;7.70;;;2.30;;
59685;SDS011;45554;51.096;16.976;2024-02-04T07:02:27;6.80;;;2.20;;
59685;SDS011;45554;51.096;16.976;2024-02-04T07:04:55;7.10;;;1.90;;
59685;SDS011;45554;51.096;16.976;2024-02-04T07:07:22;7.40;;;2.20;;
59685;SDS011;45554;51.096;16.976;2024-02-04T07:13:59;8.30;;;2.50;;
59685;SDS011;45554;51.096;16.976;2024-02-04T07:16:28;6.70;;;2.10;;
59685;SDS011;45554;51.096;16.976;2024-02-04T07:18:55;5.30;;;1.30;;
59685;SDS011;45554;51.096;16.976;2024-02-04T07:21:22;4.80;;;1.30;;
59685;SDS011;45554;51.096;16.976;2024-02-04T07:23:50;7.60;;;2.30;;
59685;SDS011;45554;51.096;16.976;2024-02-04T07:26:17;5.60;;;1.60;;
59685;SDS011;45554;51.096;16.976;2024-02-04T07:32:30;8.30;;;1.90;;
59685;SDS011;45554;51.096;16.976;2024-02-04T07:35:00;7.40;;;2.20;;
59685;SDS011;45554;51.096;16.976;2024-02-04T07:37:37;8.60;;;2.20;;
59685;SDS011;45554;51.096;16.976;2024-02-04T07:40:05;7.70;;;2.00;;
59685;SDS011;45554;51.096;16.976;2024-02-04T07:42:33;6.00;;;2.00;;
59685;SDS011;45554;51.096;16.976;2024-02-04T07:45:01;7.10;;;2.20;;
59685;SDS011;45554;51.096;16.976;2024-02-04T07:47:35;7.50;;;2.70;;
59685;SDS011;45554;51.096;16.976;2024-02-04T07:50:04;8.10;;;1.80;;
59685;SDS011;45554;51.096;16.976;2024-02-04T07:52:35;7.00;;;1.70;;
59685;SDS011;45554;51.096;16.976;2024-02-04T07:55:02;4.60;;;1.90;;
59685;SDS011;45554;51.096;16.976;2024-02-04T07:57:29;7.70;;;2.00;;
59685;SDS011;45554;51.096;16.976;2024-02-04T07:59:56;8.00;;;1.90;;
59685;SDS011;45554;51.096;16.976;2024-02-04T08:02:25;7.60;;;1.70;;
59685;SDS011;45554;51.096;16.976;2024-02-04T08:05:16;6.70;;;2.00;;
59685;SDS011;45554;51.096;16.976;2024-02-04T08:07:43;6.40;;;2.00;;
59685;SDS011;45554;51.096;16.976;2024-02-04T08:10:11;6.00;;;1.70;;
59685;SDS011;45554;51.096;16.976;2024-02-04T08:16:23;7.00;;;1.60;;
59685;SDS011;45554;51.096;16.976;2024-02-04T08:18:49;5.90;;;1.50;;
59685;SDS011;45554;51.096;16.976;2024-02-04T08:21:16;6.70;;;1.80;;
59685;SDS011;45554;51.096;16.976;2024-02-04T08:23:46;5.50;;;1.60;;
59685;SDS011;45554;51.096;16.976;2024-02-04T08:26:15;6.90;;;1.60;;
59685;SDS011;45554;51.096;16.976;2024-02-04T08:33:34;6.60;;;1.80;;
59685;SDS011;45554;51.096;16.976;2024-02-04T08:36:03;5.90;;;1.90;;
59685;SDS011;45554;51.096;16.976;2024-02-04T08:38:31;8.20;;;1.90;;
59685;SDS011;45554;51.096;16.976;2024-02-04T08:40:58;7.20;;;1.70;;
59685;SDS011;45554;51.096;16.976;2024-02-04T08:43:25;7.90;;;2.20;;
59685;SDS011;45554;51.096;16.976;2024-02-04T08:46:09;6.70;;;2.30;;
59685;SDS011;45554;51.096;16.976;2024-02-04T08:48:42;6.60;;;1.80;;
59685;SDS011;45554;51.096;16.976;2024-02-04T08:51:44;6.10;;;1.60;;
59685;SDS011;45554;51.096;16.976;2024-02-04T08:56:23;6.80;;;1.70;;
59685;SDS011;45554;51.096;16.976;2024-02-04T08:58:50;5.80;;;1.70;;
59685;SDS011;45554;51.096;16.976;2024-02-04T09:01:18;7.30;;;1.80;;
59685;SDS011;45554;51.096;16.976;2024-02-04T09:08:20;9.50;;;3.20;;
59685;SDS011;45554;51.096;16.976;2024-02-04T09:10:47;8.00;;;2.90;;
59685;SDS011;45554;51.096;16.976;2024-02-04T09:13:14;8.70;;;2.80;;
59685;SDS011;45554;51.096;16.976;2024-02-04T09:15:42;14.30;;;4.20;;
59685;SDS011;45554;51.096;16.976;2024-02-04T09:18:15;12.00;;;3.80;;
59685;SDS011;45554;51.096;16.976;2024-02-04T09:20:42;13.40;;;4.90;;
59685;SDS011;45554;51.096;16.976;2024-02-04T09:23:10;7.80;;;2.80;;
59685;SDS011;45554;51.096;16.976;2024-02-04T09:29:49;14.00;;;4.30;;
59685;SDS011;45554;51.096;16.976;2024-02-04T09:32:27;10.60;;;3.50;;
59685;SDS011;45554;51.096;16.976;2024-02-04T09:35:15;7.00;;;2.20;;
59685;SDS011;45554;51.096;16.976;2024-02-04T09:37:42;11.80;;;3.90;;
59685;SDS011;45554;51.096;16.976;2024-02-04T09:40:12;9.80;;;2.60;;
59685;SDS011;45554;51.096;16.976;2024-02-04T09:42:40;13.30;;;4.90;;
59685;SDS011;45554;51.096;16.976;2024-02-04T09:45:15;9.50;;;3.20;;
59685;SDS011;45554;51.096;16.976;2024-02-04T09:47:44;7.90;;;2.20;;
59685;SDS011;45554;51.096;16.976;2024-02-04T09:50:29;8.90;;;2.70;;
59685;SDS011;45554;51.096;16.976;2024-02-04T09:52:58;7.80;;;2.60;;
59685;SDS011;45554;51.096;16.976;2024-02-04T09:55:32;10.20;;;3.50;;
59685;SDS011;45554;51.096;16.976;2024-02-04T09:58:00;8.70;;;3.70;;
59685;SDS011;45554;51.096;16.976;2024-02-04T10:00:51;7.60;;;2.90;;
59685;SDS011;45554;51.096;16.976;2024-02-04T10:03:20;10.10;;;4.20;;
59685;SDS011;45554;51.096;16.976;2024-02-04T10:13:27;12.20;;;3.10;;
59685;SDS011;45554;51.096;16.976;2024-02-04T10:15:54;6.00;;;2.00;;
59685;SDS011;45554;51.096;16.976;2024-02-04T10:22:19;7.90;;;3.30;;
59685;SDS011;45554;51.096;16.976;2024-02-04T10:25:06;9.50;;;3.50;;
59685;SDS011;45554;51.096;16.976;2024-02-04T10:27:34;7.50;;;3.30;;
59685;SDS011;45554;51.096;16.976;2024-02-04T10:30:04;8.30;;;2.40;;
59685;SDS011;45554;51.096;16.976;2024-02-04T10:32:33;8.60;;;2.80;;
59685;SDS011;45554;51.096;16.976;2024-02-04T10:35:00;8.60;;;3.20;;
59685;SDS011;45554;51.096;16.976;2024-02-04T10:37:28;8.90;;;3.30;;
59685;SDS011;45554;51.096;16.976;2024-02-04T10:39:57;8.70;;;3.50;;
59685;SDS011;45554;51.096;16.976;2024-02-04T10:42:26;7.50;;;3.30;;
59685;SDS011;45554;51.096;16.976;2024-02-04T10:45:19;7.20;;;3.30;;
59685;SDS011;45554;51.096;16.976;2024-02-04T10:48:00;8.00;;;3.70;;
59685;SDS011;45554;51.096;16.976;2024-02-04T10:50:28;8.50;;;3.60;;
59685;SDS011;45554;51.096;16.976;2024-02-04T10:52:58;10.00;;;3.60;;
59685;SDS011;45554;51.096;16.976;2024-02-04T10:55:32;7.10;;;3.30;;
59685;SDS011;45554;51.096;16.976;2024-02-04T11:03:19;7.90;;;3.50;;
59685;SDS011;45554;51.096;16.976;2024-02-04T11:05:55;6.80;;;3.40;;
59685;SDS011;45554;51.096;16.976;2024-02-04T11:13:02;10.30;;;4.00;;
59685;SDS011;45554;51.096;16.976;2024-02-04T11:26:37;9.30;;;4.00;;
59685;SDS011;45554;51.096;16.976;2024-02-04T11:29:09;8.80;;;4.20;;
59685;SDS011;45554;51.096;16.976;2024-02-04T11:31:38;6.70;;;4.00;;
59685;SDS011;45554;51.096;16.976;2024-02-04T11:34:06;7.60;;;3.90;;
59685;SDS011;45554;51.096;16.976;2024-02-04T11:36:40;6.50;;;3.60;;
59685;SDS011;45554;51.096;16.976;2024-02-04T11:39:12;7.20;;;3.50;;
59685;SDS011;45554;51.096;16.976;2024-02-04T11:42:13;5.50;;;3.50;;
59685;SDS011;45554;51.096;16.976;2024-02-04T11:45:08;6.60;;;4.00;;
59685;SDS011;45554;51.096;16.976;2024-02-04T11:52:28;6.10;;;3.20;;
59685;SDS011;45554;51.096;16.976;2024-02-04T11:54:56;6.50;;;3.50;;
59685;SDS011;45554;51.096;16.976;2024-02-04T11:57:26;7.40;;;3.20;;
59685;SDS011;45554;51.096;16.976;2024-02-04T11:59:57;6.90;;;3.10;;
59685;SDS011;45554;51.096;16.976;2024-02-04T12:02:31;8.30;;;3.90;;
59685;SDS011;45554;51.096;16.976;2024-02-04T12:04:58;7.00;;;3.40;;
59685;SDS011;45554;51.096;16.976;2024-02-04T12:07:27;5.10;;;3.00;;
59685;SDS011;45554;51.096;16.976;2024-02-04T12:09:58;6.60;;;3.30;;
59685;SDS011;45554;51.096;16.976;2024-02-04T12:12:32;6.60;;;3.00;;
59685;SDS011;45554;51.096;16.976;2024-02-04T12:15:00;6.80;;;3.10;;
59685;SDS011;45554;51.096;16.976;2024-02-04T12:17:30;6.10;;;3.50;;
59685;SDS011;45554;51.096;16.976;2024-02-04T12:24:39;6.40;;;2.40;;
59685;SDS011;45554;51.096;16.976;2024-02-04T12:31:42;4.40;;;2.60;;
59685;SDS011;45554;51.096;16.976;2024-02-04T12:34:16;4.50;;;2.60;;
59685;SDS011;45554;51.096;16.976;2024-02-04T12:36:56;5.60;;;2.70;;
59685;SDS011;45554;51.096;16.976;2024-02-04T12:39:24;6.50;;;2.50;;
59685;SDS011;45554;51.096;16.976;2024-02-04T12:55:23;5.30;;;2.60;;
59685;SDS011;45554;51.096;16.976;2024-02-04T12:58:00;5.00;;;2.30;;
59685;SDS011;45554;51.096;16.976;2024-02-04T13:00:28;5.20;;;2.50;;
59685;SDS011;45554;51.096;16.976;2024-02-04T13:07:57;4.10;;;2.40;;
59685;SDS011;45554;51.096;16.976;2024-02-04T13:10:34;5.80;;;2.90;;
59685;SDS011;45554;51.096;16.976;2024-02-04T13:17:42;4.70;;;2.20;;
59685;SDS011;45554;51.096;16.976;2024-02-04T13:20:27;6.80;;;2.50;;
59685;SDS011;45554;51.096;16.976;2024-02-04T13:22:58;4.20;;;1.90;;
59685;SDS011;45554;51.096;16.976;2024-02-04T13:25:27;3.80;;;2.00;;
59685;SDS011;45554;51.096;16.976;2024-02-04T13:28:13;4.40;;;1.80;;
59685;SDS011;45554;51.096;16.976;2024-02-04T13:31:10;3.80;;;2.00;;
59685;SDS011;45554;51.096;16.976;2024-02-04T13:35:50;4.60;;;1.90;;
59685;SDS011;45554;51.096;16.976;2024-02-04T13:38:17;5.50;;;2.10;;
59685;SDS011;45554;51.096;16.976;2024-02-04T13:40:45;5.60;;;2.20;;
59685;SDS011;45554;51.096;16.976;2024-02-04T13:43:33;5.20;;;1.90;;
59685;SDS011;45554;51.096;16.976;2024-02-04T13:46:04;5.00;;;2.00;;
59685;SDS011;45554;51.096;16.976;2024-02-04T13:48:33;4.30;;;2.10;;
59685;SDS011;45554;51.096;16.976;2024-02-04T13:51:00;5.40;;;2.10;;
59685;SDS011;45554;51.096;16.976;2024-02-04T13:53:31;4.90;;;2.30;;
59685;SDS011;45554;51.096;16.976;2024-02-04T13:56:05;4.30;;;2.20;;
59685;SDS011;45554;51.096;16.976;2024-02-04T14:08:21;4.40;;;2.20;;
59685;SDS011;45554;51.096;16.976;2024-02-04T14:13:48;5.50;;;2.20;;
59685;SDS011;45554;51.096;16.976;2024-02-04T14:16:16;5.50;;;2.40;;
59685;SDS011;45554;51.096;16.976;2024-02-04T14:18:45;4.60;;;2.40;;
59685;SDS011;45554;51.096;16.976;2024-02-04T14:21:13;5.10;;;2.60;;
59685;SDS011;45554;51.096;16.976;2024-02-04T14:23:42;5.70;;;2.60;;
59685;SDS011;45554;51.096;16.976;2024-02-04T14:28:44;4.90;;;2.30;;
59685;SDS011;45554;51.096;16.976;2024-02-04T14:31:13;5.00;;;2.80;;
59685;SDS011;45554;51.096;16.976;2024-02-04T14:33:43;5.20;;;2.30;;
59685;SDS011;45554;51.096;16.976;2024-02-04T14:36:12;3.10;;;1.80;;
59685;SDS011;45554;51.096;16.976;2024-02-04T14:38:40;2.70;;;1.60;;
59685;SDS011;45554;51.096;16.976;2024-02-04T14:41:07;3.40;;;1.80;;
59685;SDS011;45554;51.096;16.976;2024-02-04T14:43:37;4.50;;;1.50;;
59685;SDS011;45554;51.096;16.976;2024-02-04T14:46:04;4.60;;;1.60;;
59685;SDS011;45554;51.096;16.976;2024-02-04T14:48:38;4.40;;;1.80;;
59685;SDS011;45554;51.096;16.976;2024-02-04T14:51:10;5.40;;;1.50;;
59685;SDS011;45554;51.096;16.976;2024-02-04T14:53:37;2.60;;;1.30;;
59685;SDS011;45554;51.096;16.976;2024-02-04T14:56:09;4.40;;;1.30;;
59685;SDS011;45554;51.096;16.976;2024-02-04T14:58:36;3.40;;;1.10;;
59685;SDS011;45554;51.096;16.976;2024-02-04T15:01:11;3.60;;;1.70;;
59685;SDS011;45554;51.096;16.976;2024-02-04T15:03:39;4.90;;;1.50;;
59685;SDS011;45554;51.096;16.976;2024-02-04T15:06:08;4.30;;;1.60;;
59685;SDS011;45554;51.096;16.976;2024-02-04T15:08:36;3.30;;;1.60;;
59685;SDS011;45554;51.096;16.976;2024-02-04T15:11:04;4.10;;;1.20;;
59685;SDS011;45554;51.096;16.976;2024-02-04T15:13:31;3.90;;;1.50;;
59685;SDS011;45554;51.096;16.976;2024-02-04T15:18:31;5.00;;;1.70;;
59685;SDS011;45554;51.096;16.976;2024-02-04T15:21:01;4.40;;;1.60;;
59685;SDS011;45554;51.096;16.976;2024-02-04T15:23:31;5.60;;;1.70;;
59685;SDS011;45554;51.096;16.976;2024-02-04T15:25:59;5.50;;;1.60;;
59685;SDS011;45554;51.096;16.976;2024-02-04T15:28:31;5.10;;;1.60;;
59685;SDS011;45554;51.096;16.976;2024-02-04T15:31:03;4.30;;;1.50;;
59685;SDS011;45554;51.096;16.976;2024-02-04T15:36:26;4.90;;;1.40;;
59685;SDS011;45554;51.096;16.976;2024-02-04T15:38:57;4.70;;;1.50;;
59685;SDS011;45554;51.096;16.976;2024-02-04T15:41:24;5.40;;;1.60;;
59685;SDS011;45554;51.096;16.976;2024-02-04T15:43:54;5.60;;;1.80;;
59685;SDS011;45554;51.096;16.976;2024-02-04T15:46:23;3.80;;;1.50;;
59685;SDS011;45554;51.096;16.976;2024-02-04T15:48:52;5.10;;;1.60;;
59685;SDS011;45554;51.096;16.976;2024-02-04T15:51:22;4.60;;;1.80;;
59685;SDS011;45554;51.096;16.976;2024-02-04T15:53:52;5.10;;;1.70;;
59685;SDS011;45554;51.096;16.976;2024-02-04T15:56:19;3.80;;;1.40;;
59685;SDS011;45554;51.096;16.976;2024-02-04T15:59:05;4.70;;;1.50;;
59685;SDS011;45554;51.096;16.976;2024-02-04T16:01:37;4.60;;;1.50;;
59685;SDS011;45554;51.096;16.976;2024-02-04T16:04:08;5.00;;;1.50;;
59685;SDS011;45554;51.096;16.976;2024-02-04T16:06:37;4.80;;;1.50;;
59685;SDS011;45554;51.096;16.976;2024-02-04T16:09:07;5.60;;;1.50;;
59685;SDS011;45554;51.096;16.976;2024-02-04T16:11:51;4.90;;;1.90;;
59685;SDS011;45554;51.096;16.976;2024-02-04T16:14:25;4.00;;;1.50;;
59685;SDS011;45554;51.096;16.976;2024-02-04T16:16:57;4.10;;;1.40;;
59685;SDS011;45554;51.096;16.976;2024-02-04T16:19:32;6.10;;;1.70;;
59685;SDS011;45554;51.096;16.976;2024-02-04T16:22:01;2.60;;;1.50;;
59685;SDS011;45554;51.096;16.976;2024-02-04T16:24:30;5.10;;;1.50;;
59685;SDS011;45554;51.096;16.976;2024-02-04T16:26:57;6.20;;;1.70;;
59685;SDS011;45554;51.096;16.976;2024-02-04T16:29:24;4.50;;;1.40;;
59685;SDS011;45554;51.096;16.976;2024-02-04T16:31:54;3.80;;;1.40;;
59685;SDS011;45554;51.096;16.976;2024-02-04T16:34:21;5.00;;;1.40;;
59685;SDS011;45554;51.096;16.976;2024-02-04T16:36:49;5.30;;;1.60;;
59685;SDS011;45554;51.096;16.976;2024-02-04T16:39:16;4.70;;;1.60;;
59685;SDS011;45554;51.096;16.976;2024-02-04T16:41:43;6.40;;;1.80;;
59685;SDS011;45554;51.096;16.976;2024-02-04T16:44:11;4.70;;;1.80;;
59685;SDS011;45554;51.096;16.976;2024-02-04T16:49:07;7.10;;;2.00;;
59685;SDS011;45554;51.096;16.976;2024-02-04T16:51:38;4.70;;;1.80;;
59685;SDS011;45554;51.096;16.976;2024-02-04T16:54:06;7.00;;;1.70;;
59685;SDS011;45554;51.096;16.976;2024-02-04T16:56:33;6.50;;;2.00;;
59685;SDS011;45554;51.096;16.976;2024-02-04T16:59:01;5.90;;;1.80;;
59685;SDS011;45554;51.096;16.976;2024-02-04T17:01:29;5.40;;;2.00;;
59685;SDS011;45554;51.096;16.976;2024-02-04T17:03:58;6.90;;;2.00;;
59685;SDS011;45554;51.096;16.976;2024-02-04T17:06:26;7.30;;;2.00;;
59685;SDS011;45554;51.096;16.976;2024-02-04T17:08:54;5.30;;;1.50;;
59685;SDS011;45554;51.096;16.976;2024-02-04T17:11:21;5.40;;;2.10;;
59685;SDS011;45554;51.096;16.976;2024-02-04T17:13:51;7.00;;;2.30;;
59685;SDS011;45554;51.096;16.976;2024-02-04T17:16:29;7.50;;;2.10;;
59685;SDS011;45554;51.096;16.976;2024-02-04T17:19:19;6.30;;;2.10;;
59685;SDS011;45554;51.096;16.976;2024-02-04T17:22:00;7.30;;;2.20;;
59685;SDS011;45554;51.096;16.976;2024-02-04T17:24:50;6.70;;;2.70;;
59685;SDS011;45554;51.096;16.976;2024-02-04T17:27:18;8.30;;;3.00;;
59685;SDS011;45554;51.096;16.976;2024-02-04T17:29:46;7.90;;;2.80;;
59685;SDS011;45554;51.096;16.976;2024-02-04T17:32:16;6.80;;;2.30;;
59685;SDS011;45554;51.096;16.976;2024-02-04T17:34:50;5.80;;;2.00;;
59685;SDS011;45554;51.096;16.976;2024-02-04T17:37:17;7.70;;;2.10;;